createdAt,value
2022-10-13T00:03:29.795Z,80.62
2022-10-13T00:13:33.769Z,80.75
2022-10-13T00:23:38.704Z,80.46
2022-10-13T00:33:43.150Z,80.99
2022-10-13T00:43:57.556Z,82.01
2022-10-13T00:54:03.830Z,82.29
2022-10-13T01:04:07.436Z,81.94
2022-10-13T01:14:29.622Z,82.08
2022-10-13T01:24:33.101Z,81.88
2022-10-13T01:35:01.507Z,81.57
2022-10-13T01:45:08.840Z,81.71
2022-10-13T01:55:13.474Z,81.90
2022-10-13T02:05:35.036Z,81.80
2022-10-13T02:15:46.566Z,81.89
2022-10-13T02:25:51.569Z,82.42
2022-10-13T02:35:55.122Z,82.60
2022-10-13T02:45:58.702Z,82.17
2022-10-13T02:56:02.265Z,82.06
2022-10-13T03:06:08.780Z,82.01
2022-10-13T03:16:12.448Z,81.84
2022-10-13T03:26:16.731Z,81.50
2022-10-13T03:36:21.007Z,82.20
2022-10-13T03:46:29.565Z,81.91
2022-10-13T03:56:33.870Z,81.22
2022-10-13T04:06:37.434Z,81.45
2022-10-13T04:16:40.998Z,81.67
2022-10-13T04:26:45.479Z,82.09
2022-10-13T04:36:52.322Z,81.93
2022-10-13T04:46:55.981Z,81.59
2022-10-13T04:57:00.010Z,81.23
2022-10-13T05:07:17.490Z,81.11
2022-10-13T05:17:23.094Z,81.43
2022-10-13T05:27:26.818Z,81.42
2022-10-13T05:37:30.581Z,81.35
2022-10-13T05:47:34.477Z,81.50
2022-10-13T05:57:42.503Z,81.75
2022-10-13T06:07:48.392Z,82.00
2022-10-13T06:17:52.408Z,82.54
2022-10-13T06:28:02.960Z,82.44
2022-10-13T06:38:06.819Z,82.18
2022-10-13T06:48:12.297Z,81.03
2022-10-13T06:58:15.973Z,79.70
2022-10-13T07:08:21.054Z,78.21
2022-10-13T07:18:25.052Z,77.07
2022-10-13T07:28:29.784Z,76.34
2022-10-13T07:38:33.801Z,76.02
2022-10-13T07:48:37.687Z,76.02
2022-10-13T07:58:44.588Z,76.35
2022-10-13T08:08:48.785Z,77.11
2022-10-13T08:18:53.879Z,77.74
2022-10-13T08:29:16.868Z,77.56
2022-10-13T08:39:23.426Z,77.71
2022-10-13T08:49:28.821Z,78.58
2022-10-13T08:59:33.020Z,78.39
2022-10-13T09:09:38.816Z,78.25
2022-10-13T09:19:42.908Z,77.84
2022-10-13T09:29:46.766Z,76.71
2022-10-13T09:40:19.975Z,76.22
2022-10-13T09:50:30.116Z,76.02
2022-10-13T10:00:34.245Z,76.00
2022-10-13T10:10:41.588Z,75.79
2022-10-13T10:21:21.437Z,75.36
2022-10-13T10:31:46.910Z,74.53
2022-10-13T10:42:04.780Z,73.11
2022-10-13T10:52:18.128Z,72.13
2022-10-13T11:02:30.640Z,70.85
2022-10-13T11:12:52.808Z,69.06
2022-10-13T11:23:00.322Z,68.51
2022-10-13T11:33:39.467Z,66.60
2022-10-13T11:43:53.246Z,66.15
2022-10-13T11:54:19.833Z,65.52
2022-10-13T12:04:25.776Z,65.15
2022-10-13T12:14:43.965Z,63.43
2022-10-13T12:24:59.373Z,64.23
2022-10-13T12:35:26.276Z,62.45
2022-10-13T12:45:34.961Z,61.04
2022-10-13T12:56:01.960Z,60.37
2022-10-13T13:06:09.511Z,60.42
2022-10-13T13:16:22.304Z,59.88
2022-10-13T13:26:26.894Z,60.20
2022-10-13T13:36:31.724Z,62.24
2022-10-13T13:46:35.851Z,63.44
2022-10-13T13:56:39.728Z,64.20
2022-10-13T14:06:43.491Z,63.74
2022-10-13T14:16:47.655Z,63.50
2022-10-13T14:26:51.735Z,63.54
2022-10-13T14:36:55.609Z,63.80
2022-10-13T14:46:59.673Z,64.01
2022-10-13T14:57:06.516Z,63.74
2022-10-13T15:07:10.410Z,63.78
2022-10-13T15:17:14.358Z,64.81
2022-10-13T15:27:18.228Z,66.15
2022-10-13T15:37:21.889Z,67.46
2022-10-13T15:47:26.490Z,69.02
2022-10-13T15:57:31.914Z,70.14
2022-10-13T16:07:36.290Z,71.16
2022-10-13T16:17:40.342Z,72.07
2022-10-13T16:27:44.722Z,72.77
2022-10-13T16:37:48.583Z,73.65
2022-10-13T16:47:52.764Z,74.12
2022-10-13T16:57:56.852Z,75.06
2022-10-13T17:08:00.617Z,75.58
2022-10-13T17:18:04.898Z,76.55
2022-10-13T17:28:08.865Z,76.68
2022-10-13T17:38:13.346Z,76.77
2022-10-13T17:48:23.030Z,76.97
2022-10-13T17:58:30.761Z,76.88
2022-10-13T18:08:35.209Z,78.38
2022-10-13T18:18:40.320Z,78.59
2022-10-13T18:28:49.429Z,79.02
2022-10-13T18:39:02.204Z,79.19
2022-10-13T18:49:09.711Z,79.51
2022-10-13T18:59:16.035Z,79.30
2022-10-13T19:09:22.511Z,79.51
2022-10-13T19:19:27.534Z,79.89
2022-10-13T19:29:35.845Z,80.33
2022-10-13T19:39:43.380Z,80.03
2022-10-13T19:49:48.890Z,80.14
2022-10-13T19:59:54.300Z,79.82
2022-10-13T20:09:59.521Z,79.52
2022-10-13T20:20:06.311Z,79.76
2022-10-13T20:30:11.832Z,80.23
2022-10-13T20:40:15.911Z,80.37
2022-10-13T20:50:19.888Z,80.52
2022-10-13T21:00:24.108Z,80.76
2022-10-13T21:10:28.041Z,81.08
2022-10-13T21:20:32.017Z,81.24
2022-10-13T21:30:37.835Z,81.31
2022-10-13T21:40:41.902Z,81.14
2022-10-13T21:50:46.693Z,81.21
2022-10-13T22:00:50.405Z,81.31
2022-10-13T22:10:57.474Z,82.18
2022-10-13T22:21:06.660Z,82.26
2022-10-13T22:31:12.924Z,83.06
2022-10-13T22:41:18.477Z,82.61
2022-10-13T22:51:24.971Z,82.74
2022-10-13T23:01:28.835Z,83.39
2022-10-13T23:11:32.907Z,83.39
2022-10-13T23:21:37.094Z,83.85
2022-10-13T23:31:41.467Z,84.14
2022-10-13T23:41:45.241Z,84.36
2022-10-13T23:51:49.927Z,84.80
